Terminal Aerodrome Forecast
Issued by NWS

Home | Current Version | Previous Version | Text Only | Print | Product List | Glossary On
Versions: 1 2 3 4 5 6 7 8 9 10 11 12
000
FTUS44 KLZK 011700
TAFLIT
TAF
KLIT 011736Z 0118/0218 22008G15KT P6SM SCT030 BKN250
     FM020600 22010KT P6SM SCT035 BKN250
     FM021300 23010G20KT P6SM BKN150=

USA.gov is the U.S. government's official web portal to all federal, state and local government web resources and services.